Time;durP1;ratioP1;P1;durP2;ratioP2;P2;SDS_P1;SDS_P2;PMS_P1;PMS_P2;Temp;Humidity;BMP_temperature;BMP_pressure;BME280_temperature;BME280_humidity;BME280_pressure;Samples;Min_cycle;Max_cycle;Signal;HPM_P1;HPM_P2
2023/12/05 06:00:27;;;;;;;;;;;;;;;;;;5986608;23;20781;-43
2023/12/05 06:02:53;;;;;;;;;;;;;;;;;;4912077;29;19915;-44
2023/12/05 06:05:19;;;;;;;;;;;;;;;;;;4897316;29;19911;-44
2023/12/05 06:07:45;;;;;;;;;;;;;;;;;;4920327;29;20285;-45
2023/12/05 06:10:11;;;;;;;;;;;;;;;;;;4915262;29;19911;-44
2023/12/05 06:12:37;;;;;;;;;;;;;;;;;;4934349;29;20398;-43
2023/12/05 06:15:03;;;;;;;;;;;;;;;;;;4934474;29;19922;-45
2023/12/05 06:17:28;;;;;;;;;;;;;;;;;;4927420;29;19925;-43
2023/12/05 06:19:54;;;;;;;;;;;;;;;;;;4916039;29;19926;-42
2023/12/05 06:22:20;;;;;;;;;;;;;;;;;;4917170;29;20339;-43
2023/12/05 06:24:46;;;;;;;;;;;;;;;;;;4916559;29;20010;-42
2023/12/05 06:27:12;;;;;;;;;;;;;;;;;;4933964;29;20397;-43
2023/12/05 06:29:38;;;;;;;;;;;;;;;;;;4914607;29;19915;-43
2023/12/05 06:32:04;;;;;;;;;;;;;;;;;;4916858;29;20010;-43
2023/12/05 06:34:30;;;;;;;;;;;;;;;;;;4932056;29;20023;-44
2023/12/05 06:36:55;;;;;;;;;;;;;;;;;;4925257;29;19947;-43
2023/12/05 06:39:22;;;;;;;;;;;;;;;;;;4916443;29;20421;-44
2023/12/05 06:41:47;;;;;;;;;;;;;;;;;;4915380;29;20366;-44
2023/12/05 06:44:13;;;;;;;;;;;;;;;;;;4916381;29;19915;-44
2023/12/05 06:46:40;;;;;;;;;;;;;;;;;;4914808;29;19922;-43
2023/12/05 06:49:06;;;;;;;;;;;;;;;;;;4915668;29;19915;-43
2023/12/05 06:51:32;;;;;;;;;;;;;;;;;;4920639;29;20338;-43
2023/12/05 06:53:57;;;;;;;;;;;;;;;;;;4912917;29;19915;-44
2023/12/05 06:56:23;;;;;;;;;;;;;;;;;;4935170;29;19925;-43
2023/12/05 06:58:49;;;;;;;;;;;;;;;;;;4928661;29;19926;-44
2023/12/05 07:01:15;;;;;;;;;;;;;;;;;;4928441;29;19919;-42
2023/12/05 07:03:41;;;;;;;;;;;;;;;;;;4935120;29;19973;-43
2023/12/05 07:06:07;;;;;;;;;;;;;;;;;;4935290;29;20006;-42
2023/12/05 07:08:33;;;;;;;;;;;;;;;;;;4933897;29;19926;-43
2023/12/05 07:10:59;;;;;;;;;;;;;;;;;;4935240;29;20077;-42
2023/12/05 07:13:24;;;;;;;;;;;;;;;;;;4935222;29;19922;-43
2023/12/05 07:15:50;;;;;;;;;;;;;;;;;;4933839;29;20302;-42
2023/12/05 07:18:16;;;;;;;;;;;;;;;;;;4929401;29;20017;-44
2023/12/05 07:20:42;;;;;;;;;;;;;;;;;;4932326;29;19918;-43
2023/12/05 07:23:08;;;;;;;;;;;;;;;;;;4915624;29;20018;-43
2023/12/05 07:25:34;;;;;;;;;;;;;;;;;;4921836;29;19911;-43
2023/12/05 07:28:00;;;;;;;;;;;;;;;;;;4918123;29;20002;-43
2023/12/05 07:30:26;;;;;;;;;;;;;;;;;;4917919;29;19919;-42
2023/12/05 07:32:51;;;;;;;;;;;;;;;;;;4910972;29;19915;-43
2023/12/05 07:35:17;;;;;;;;;;;;;;;;;;4913352;29;19940;-42
2023/12/05 07:37:43;;;;;;;;;;;;;;;;;;4933024;29;19962;-43
2023/12/05 07:40:09;;;;;;;;;;;;;;;;;;4920614;29;20401;-43
2023/12/05 07:42:35;;;;;;;;;;;;;;;;;;4913847;29;19922;-42
2023/12/05 07:45:01;;;;;;;;;;;;;;;;;;4911773;29;19970;-43
2023/12/05 07:47:27;;;;;;;;;;;;;;;;;;4908424;29;20006;-42
2023/12/05 07:49:53;;;;;;;;;;;;;;;;;;4895471;29;20006;-43
2023/12/05 07:52:19;;;;;;;;;;;;;;;;;;4906892;29;20453;-44
2023/12/05 07:54:45;;;;;;;;;;;;;;;;;;4913688;29;19922;-42
2023/12/05 07:57:11;;;;;;;;;;;;;;;;;;4913484;29;19915;-44
2023/12/05 07:59:37;;;;;;;;;;;;;;;;;;4918983;29;19915;-43
2023/12/05 08:02:03;;;;;;;;;;;;;;;;;;4901851;29;20263;-44
2023/12/05 08:04:29;;;;;;;;;;;;;;;;;;4912556;29;20079;-43
2023/12/05 08:06:55;;;;;;;;;;;;;;;;;;4912654;29;19941;-43
2023/12/05 08:09:21;;;;;;;;;;;;;;;;;;4916906;29;19922;-43
2023/12/05 08:11:47;;;;;;;;;;;;;;;;;;4923409;29;20445;-45
2023/12/05 08:14:12;;;;;;;;;;;;;;;;;;4912183;29;19922;-43
2023/12/05 08:16:40;;;;;;;;;;;;;;;;;;4912672;29;20278;-43
2023/12/05 08:19:05;;;;;;;;;;;;;;;;;;4913791;29;19982;-43
2023/12/05 08:21:31;;;;;;;;;;;;;;;;;;4932138;29;19911;-43
2023/12/05 08:23:57;;;;;;;;;;;;;;;;;;4932538;29;19942;-44
2023/12/05 08:26:23;;;;;;;;;;;;;;;;;;4919019;29;19915;-44
2023/12/05 08:28:49;;;;;;;;;;;;;;;;;;4911379;29;19915;-45
2023/12/05 08:31:15;;;;;;;;;;;;;;;;;;4912856;29;19958;-43
2023/12/05 08:33:41;;;;;;;;;;;;;;;;;;4912719;29;20386;-43
2023/12/05 08:36:07;;;;;;;;;;;;;;;;;;4912606;29;19966;-44
2023/12/05 08:38:33;;;;;;;;;;;;;;;;;;4912825;29;19915;-44
2023/12/05 08:40:58;;;;;;;;;;;;;;;;;;4912956;29;19911;-43
2023/12/05 08:43:24;;;;;;;;;;;;;;;;;;4913424;29;20553;-43
2023/12/05 08:45:51;;;;;;;;;;;;;;;;;;4895349;29;19957;-43
2023/12/05 08:48:17;;;;;;;;;;;;;;;;;;4893974;29;19915;-43
2023/12/05 08:50:43;;;;;;;;;;;;;;;;;;4893586;29;20008;-43
2023/12/05 08:53:09;;;;;;;;;;;;;;;;;;4893678;29;19915;-43
2023/12/05 08:55:34;;;;;;;;;;;;;;;;;;4893522;29;20043;-43
2023/12/05 08:58:00;;;;;;;;;;;;;;;;;;4893835;29;19912;-44
2023/12/05 09:00:26;;;;;;;;;;;;;;;;;;4893972;29;19911;-43
2023/12/05 09:02:52;;;;;;;;;;;;;;;;;;4904886;29;19911;-44
2023/12/05 09:05:18;;;;;;;;;;;;;;;;;;4912600;29;20043;-46
2023/12/05 09:07:44;;;;;;;;;;;;;;;;;;4911740;29;19916;-45
2023/12/05 09:10:10;;;;;;;;;;;;;;;;;;4912606;29;20280;-43
2023/12/05 09:12:36;;;;;;;;;;;;;;;;;;4911816;29;19970;-43
2023/12/05 09:15:02;;;;;;;;;;;;;;;;;;4912667;29;19950;-44
2023/12/05 09:17:28;;;;;;;;;;;;;;;;;;4911338;29;19920;-44
2023/12/05 09:19:54;;;;;;;;;;;;;;;;;;4913070;29;19911;-43
2023/12/05 09:22:20;;;;;;;;;;;;;;;;;;4893887;29;19926;-44
2023/12/05 09:24:46;;;;;;;;;;;;;;;;;;4912630;29;19911;-44
2023/12/05 09:27:12;;;;;;;;;;;;;;;;;;4909031;29;19915;-46
2023/12/05 09:29:38;;;;;;;;;;;;;;;;;;4914214;29;19961;-44
2023/12/05 09:32:04;;;;;;;;;;;;;;;;;;4912537;29;19942;-44
2023/12/05 09:34:30;;;;;;;;;;;;;;;;;;4929601;29;19911;-47
2023/12/05 09:36:56;;;;;;;;;;;;;;;;;;4918862;29;20462;-45
2023/12/05 09:39:23;;;;;;;;;;;;;;;;;;4910279;29;19922;-45
2023/12/05 09:41:49;;;;;;;;;;;;;;;;;;4912506;29;19915;-44
2023/12/05 09:44:15;;;;;;;;;;;;;;;;;;4916232;29;20325;-44
2023/12/05 09:46:41;;;;;;;;;;;;;;;;;;4919982;29;19918;-44
2023/12/05 09:49:06;;;;;;;;;;;;;;;;;;4926235;29;20072;-43
2023/12/05 09:51:32;;;;;;;;;;;;;;;;;;4916338;29;19916;-44
2023/12/05 09:53:58;;;;;;;;;;;;;;;;;;4916288;29;19911;-44
2023/12/05 09:56:24;;;;;;;;;;;;;;;;;;4916225;29;19915;-45
2023/12/05 09:58:50;;;;;;;;;;;;;;;;;;4915931;29;19911;-46
2023/12/05 10:01:16;;;;;;;;;;;;;;;;;;4911949;29;19929;-43
2023/12/05 10:03:42;;;;;;;;;;;;;;;;;;4916945;29;19911;-43
2023/12/05 10:06:08;;;;;;;;;;;;;;;;;;4917109;29;19918;-44
2023/12/05 10:08:34;;;;;;;;;;;;;;;;;;4916133;29;20378;-44
2023/12/05 10:11:00;;;;;;;;;;;;;;;;;;4916229;29;19915;-45
2023/12/05 10:13:26;;;;;;;;;;;;;;;;;;4931207;29;19958;-47
2023/12/05 10:15:53;;;;;;;;;;;;;;;;;;4933827;29;20378;-44
2023/12/05 10:18:18;;;;;;;;;;;;;;;;;;4932635;29;19958;-43
2023/12/05 10:20:44;;;;;;;;;;;;;;;;;;4915191;29;19969;-43
2023/12/05 10:23:10;;;;;;;;;;;;;;;;;;4931989;29;19922;-44
2023/12/05 10:25:36;;;;;;;;;;;;;;;;;;4935195;29;20322;-45
2023/12/05 10:28:03;;;;;;;;;;;;;;;;;;4935069;29;20406;-45
2023/12/05 10:30:29;;;;;;;;;;;;;;;;;;4934929;29;19957;-45
2023/12/05 10:32:55;;;;;;;;;;;;;;;;;;4934849;29;19942;-45
2023/12/05 10:35:21;;;;;;;;;;;;;;;;;;4934727;29;20377;-43
2023/12/05 10:37:47;;;;;;;;;;;;;;;;;;4925265;29;19963;-44
2023/12/05 10:40:13;;;;;;;;;;;;;;;;;;4915201;29;19947;-43
2023/12/05 10:42:38;;;;;;;;;;;;;;;;;;4915382;29;19984;-44
2023/12/05 10:45:04;;;;;;;;;;;;;;;;;;4914973;29;19962;-43
2023/12/05 10:47:30;;;;;;;;;;;;;;;;;;4914867;29;19917;-44
2023/12/05 10:49:56;;;;;;;;;;;;;;;;;;4915103;29;19936;-44
2023/12/05 10:52:22;;;;;;;;;;;;;;;;;;4914477;29;19918;-45
2023/12/05 10:54:48;;;;;;;;;;;;;;;;;;4914718;29;19912;-43
2023/12/05 10:57:14;;;;;;;;;;;;;;;;;;4915271;29;20013;-43
2023/12/05 10:59:40;;;;;;;;;;;;;;;;;;4915256;29;19911;-45
2023/12/05 11:02:05;;;;;;;;;;;;;;;;;;4897979;29;19919;-44
2023/12/05 11:04:31;;;;;;;;;;;;;;;;;;4914387;29;20431;-43
2023/12/05 11:06:57;;;;;;;;;;;;;;;;;;4914426;29;19911;-46
2023/12/05 11:09:23;;;;;;;;;;;;;;;;;;4914423;29;20379;-44
2023/12/05 11:11:49;;;;;;;;;;;;;;;;;;4914581;29;19911;-44
2023/12/05 11:14:15;;;;;;;;;;;;;;;;;;4914813;29;19938;-44
2023/12/05 11:16:41;;;;;;;;;;;;;;;;;;4911012;29;19969;-44
2023/12/05 11:19:07;;;;;;;;;;;;;;;;;;4906098;29;20408;-44
2023/12/05 11:21:33;;;;;;;;;;;;;;;;;;4913704;29;19971;-44
2023/12/05 11:23:59;;;;;;;;;;;;;;;;;;4913812;29;19931;-43
2023/12/05 11:26:26;;;;;;;;;;;;;;;;;;4914328;29;19915;-44
2023/12/05 11:28:52;;;;;;;;;;;;;;;;;;4913919;29;19939;-44
2023/12/05 11:31:18;;;;;;;;;;;;;;;;;;4914069;29;19965;-44
2023/12/05 11:33:44;;;;;;;;;;;;;;;;;;4913267;29;20306;-46
2023/12/05 11:36:09;;;;;;;;;;;;;;;;;;4921322;29;19919;-43
2023/12/05 11:38:35;;;;;;;;;;;;;;;;;;4913686;29;19915;-43
2023/12/05 11:41:01;;;;;;;;;;;;;;;;;;4912802;29;19916;-43
2023/12/05 11:43:27;;;;;;;;;;;;;;;;;;4924982;29;20270;-44
2023/12/05 11:45:53;;;;;;;;;;;;;;;;;;4917291;29;19915;-47
2023/12/05 11:48:19;;;;;;;;;;;;;;;;;;4897418;29;20009;-44
2023/12/05 11:50:49;;;;;;;;;;;;;;;;;;4910040;29;20014;-44
2023/12/05 11:53:15;;;;;;;;;;;;;;;;;;4929288;29;20358;-44
2023/12/05 11:55:41;;;;;;;;;;;;;;;;;;4922980;29;20030;-44
2023/12/05 11:58:08;;;;;;;;;;;;;;;;;;4909484;29;20317;-44
2023/12/05 12:00:33;;;;;;;;;;;;;;;;;;4918979;29;19915;-43
2023/12/05 12:03:01;;;;;;;;;;;;;;;;;;4897300;29;19918;-44
2023/12/05 12:05:27;;;;;;;;;;;;;;;;;;4906098;29;19914;-46
2023/12/05 12:07:52;;;;;;;;;;;;;;;;;;4917999;29;19919;-47
2023/12/05 12:10:18;;;;;;;;;;;;;;;;;;4915577;29;20001;-46
2023/12/05 12:12:45;;;;;;;;;;;;;;;;;;4913610;29;19915;-44
2023/12/05 12:15:11;;;;;;;;;;;;;;;;;;4912431;29;19915;-44
2023/12/05 12:17:38;;;;;;;;;;;;;;;;;;4905155;29;20011;-44
2023/12/05 12:20:04;;;;;;;;;;;;;;;;;;4912459;29;20009;-44
2023/12/05 12:22:30;;;;;;;;;;;;;;;;;;4925103;29;19978;-45
2023/12/05 12:24:56;;;;;;;;;;;;;;;;;;4932252;29;19911;-44
2023/12/05 12:27:22;;;;;;;;;;;;;;;;;;4915154;29;20377;-45
2023/12/05 12:29:48;;;;;;;;;;;;;;;;;;4931342;29;19921;-48
2023/12/05 12:32:14;;;;;;;;;;;;;;;;;;4931600;29;20010;-45
2023/12/05 12:34:41;;;;;;;;;;;;;;;;;;4930764;29;20326;-46
2023/12/05 12:37:07;;;;;;;;;;;;;;;;;;4920893;29;20301;-46
2023/12/05 12:39:37;;;;;;;;;;;;;;;;;;4910512;29;19916;-47
2023/12/05 12:42:03;;;;;;;;;;;;;;;;;;4894172;29;19912;-45
2023/12/05 12:44:29;;;;;;;;;;;;;;;;;;4909103;29;20361;-44
2023/12/05 12:46:55;;;;;;;;;;;;;;;;;;4918573;29;19962;-46
2023/12/05 12:49:21;;;;;;;;;;;;;;;;;;4908473;29;19915;-45
2023/12/05 12:51:48;;;;;;;;;;;;;;;;;;4895820;29;19918;-44
2023/12/05 12:54:13;;;;;;;;;;;;;;;;;;4913314;29;19911;-44
2023/12/05 12:56:39;;;;;;;;;;;;;;;;;;4920096;29;20015;-45
2023/12/05 12:59:06;;;;;;;;;;;;;;;;;;4931576;29;19943;-48
2023/12/05 13:01:38;;;;;;;;;;;;;;;;;;4931418;29;20412;-44
2023/12/05 13:04:04;;;;;;;;;;;;;;;;;;4931729;29;20422;-46
2023/12/05 13:06:30;;;;;;;;;;;;;;;;;;4931606;29;19982;-46
2023/12/05 13:08:56;;;;;;;;;;;;;;;;;;4931524;29;19934;-45
2023/12/05 13:11:22;;;;;;;;;;;;;;;;;;4931658;29;19911;-45
2023/12/05 13:13:48;;;;;;;;;;;;;;;;;;4930997;29;20346;-47
2023/12/05 13:16:15;;;;;;;;;;;;;;;;;;4921335;29;19919;-44
2023/12/05 13:18:44;;;;;;;;;;;;;;;;;;4916461;29;19915;-45
2023/12/05 13:21:11;;;;;;;;;;;;;;;;;;4935546;29;19910;-44
2023/12/05 13:23:37;;;;;;;;;;;;;;;;;;4935414;29;20428;-45
2023/12/05 13:26:03;;;;;;;;;;;;;;;;;;4935379;29;19911;-44
2023/12/05 13:28:28;;;;;;;;;;;;;;;;;;4917995;29;19910;-45
2023/12/05 13:30:54;;;;;;;;;;;;;;;;;;4915822;29;19947;-45
2023/12/05 13:33:20;;;;;;;;;;;;;;;;;;4924770;29;20374;-44
2023/12/05 13:35:46;;;;;;;;;;;;;;;;;;4935067;29;19974;-45
2023/12/05 13:38:12;;;;;;;;;;;;;;;;;;4935779;29;20448;-45
2023/12/05 13:40:38;;;;;;;;;;;;;;;;;;4934736;29;19911;-46
2023/12/05 13:43:07;;;;;;;;;;;;;;;;;;4934855;29;19911;-47
2023/12/05 13:45:33;;;;;;;;;;;;;;;;;;4934908;29;19911;-48
2023/12/05 13:47:59;;;;;;;;;;;;;;;;;;4930516;29;19915;-43
2023/12/05 13:50:25;;;;;;;;;;;;;;;;;;4912505;29;19926;-47
2023/12/05 13:52:51;;;;;;;;;;;;;;;;;;4916416;29;19911;-46
2023/12/05 13:55:17;;;;;;;;;;;;;;;;;;4894487;29;19922;-45
2023/12/05 13:57:43;;;;;;;;;;;;;;;;;;4927628;29;19923;-44
2023/12/05 14:00:10;;;;;;;;;;;;;;;;;;4916344;29;20009;-45
2023/12/05 14:02:36;;;;;;;;;;;;;;;;;;4916064;29;19923;-46
2023/12/05 14:05:02;;;;;;;;;;;;;;;;;;4916461;29;19918;-44
2023/12/05 14:07:30;;;;;;;;;;;;;;;;;;4914936;29;20411;-46
2023/12/05 14:09:56;;;;;;;;;;;;;;;;;;4916241;29;19959;-43
2023/12/05 14:12:21;;;;;;;;;;;;;;;;;;4916574;29;20442;-44
2023/12/05 14:14:47;;;;;;;;;;;;;;;;;;4916600;29;19918;-45
2023/12/05 14:17:14;;;;;;;;;;;;;;;;;;4916189;29;19947;-44
2023/12/05 14:19:41;;;;;;;;;;;;;;;;;;4916390;29;19911;-45
2023/12/05 14:22:07;;;;;;;;;;;;;;;;;;4927537;29;19919;-44
2023/12/05 14:24:32;;;;;;;;;;;;;;;;;;4913972;29;20005;-44
2023/12/05 14:26:59;;;;;;;;;;;;;;;;;;4926065;29;19915;-44
2023/12/05 14:29:24;;;;;;;;;;;;;;;;;;4934851;29;19950;-45
2023/12/05 14:31:51;;;;;;;;;;;;;;;;;;4933131;29;19946;-45
2023/12/05 14:34:17;;;;;;;;;;;;;;;;;;4935221;29;19911;-44
2023/12/05 14:36:43;;;;;;;;;;;;;;;;;;4919169;29;20275;-44
2023/12/05 14:39:09;;;;;;;;;;;;;;;;;;4915351;29;19911;-44
2023/12/05 14:41:35;;;;;;;;;;;;;;;;;;4921632;29;19922;-45
2023/12/05 14:44:02;;;;;;;;;;;;;;;;;;4919451;29;20026;-45
2023/12/05 14:46:29;;;;;;;;;;;;;;;;;;4933652;29;19922;-44
2023/12/05 14:48:55;;;;;;;;;;;;;;;;;;4931961;29;20282;-47
2023/12/05 14:51:20;;;;;;;;;;;;;;;;;;4915144;29;20017;-47
2023/12/05 14:53:46;;;;;;;;;;;;;;;;;;4919265;29;19915;-44
2023/12/05 14:56:12;;;;;;;;;;;;;;;;;;4921705;29;19926;-46
2023/12/05 14:58:38;;;;;;;;;;;;;;;;;;4915684;29;19915;-46
2023/12/05 15:01:04;;;;;;;;;;;;;;;;;;4911979;29;19982;-46
2023/12/05 15:03:30;;;;;;;;;;;;;;;;;;4915594;29;19911;-46
2023/12/05 15:05:56;;;;;;;;;;;;;;;;;;4915323;29;19947;-44
2023/12/05 15:08:22;;;;;;;;;;;;;;;;;;4915431;29;19994;-44
2023/12/05 15:10:47;;;;;;;;;;;;;;;;;;4914952;29;19915;-47
2023/12/05 15:13:13;;;;;;;;;;;;;;;;;;4915983;29;19911;-45
2023/12/05 15:15:40;;;;;;;;;;;;;;;;;;4914297;29;19954;-46
2023/12/05 15:18:05;;;;;;;;;;;;;;;;;;4911985;29;19919;-45
2023/12/05 15:20:31;;;;;;;;;;;;;;;;;;4924982;29;19971;-47
2023/12/05 15:22:57;;;;;;;;;;;;;;;;;;4914807;29;20286;-48
2023/12/05 15:25:23;;;;;;;;;;;;;;;;;;4915139;29;19911;-45
2023/12/05 15:27:50;;;;;;;;;;;;;;;;;;4916771;29;20382;-44
2023/12/05 15:30:16;;;;;;;;;;;;;;;;;;4920247;29;19942;-47
2023/12/05 15:32:49;;;;;;;;;;;;;;;;;;4926833;29;20378;-44
2023/12/05 15:35:15;;;;;;;;;;;;;;;;;;4915023;29;20066;-45
2023/12/05 15:37:41;;;;;;;;;;;;;;;;;;4912518;29;20416;-47
2023/12/05 15:40:10;;;;;;;;;;;;;;;;;;4912464;29;19911;-44
2023/12/05 15:42:36;;;;;;;;;;;;;;;;;;4914715;29;19963;-46
2023/12/05 15:45:02;;;;;;;;;;;;;;;;;;4914643;29;19966;-46
2023/12/05 15:47:28;;;;;;;;;;;;;;;;;;4920850;29;19946;-44
2023/12/05 15:49:54;;;;;;;;;;;;;;;;;;4929928;29;20449;-44
2023/12/05 15:52:20;;;;;;;;;;;;;;;;;;4908163;29;19939;-45
2023/12/05 15:54:46;;;;;;;;;;;;;;;;;;4913646;29;19911;-45
2023/12/05 15:57:12;;;;;;;;;;;;;;;;;;4910614;29;19946;-46
2023/12/05 15:59:37;;;;;;;;;;;;;;;;;;4912816;29;19919;-45
2023/12/05 16:02:04;;;;;;;;;;;;;;;;;;4922944;29;19990;-47
2023/12/05 16:04:30;;;;;;;;;;;;;;;;;;4919650;29;20395;-44
2023/12/05 16:06:56;;;;;;;;;;;;;;;;;;4909471;29;19921;-46
2023/12/05 16:09:23;;;;;;;;;;;;;;;;;;4913201;29;19979;-46
2023/12/05 16:11:50;;;;;;;;;;;;;;;;;;4910612;29;19926;-45
2023/12/05 16:14:15;;;;;;;;;;;;;;;;;;4916351;29;20354;-49
2023/12/05 16:16:41;;;;;;;;;;;;;;;;;;4921950;29;19919;-46
2023/12/05 16:19:08;;;;;;;;;;;;;;;;;;4913959;29;19911;-46
2023/12/05 16:21:34;;;;;;;;;;;;;;;;;;4917462;29;19946;-47
2023/12/05 16:23:59;;;;;;;;;;;;;;;;;;4913111;29;19951;-45
2023/12/05 16:26:28;;;;;;;;;;;;;;;;;;4914579;29;19979;-45
2023/12/05 16:28:54;;;;;;;;;;;;;;;;;;4915614;29;19922;-45
2023/12/05 16:31:20;;;;;;;;;;;;;;;;;;4911822;29;19919;-47
2023/12/05 16:33:45;;;;;;;;;;;;;;;;;;4916054;29;19918;-49
2023/12/05 16:36:13;;;;;;;;;;;;;;;;;;4910583;29;19982;-45
2023/12/05 16:38:38;;;;;;;;;;;;;;;;;;4907195;29;19924;-45
2023/12/05 16:41:04;;;;;;;;;;;;;;;;;;4900013;29;20425;-48
2023/12/05 16:43:31;;;;;;;;;;;;;;;;;;4899524;29;20491;-47
2023/12/05 16:45:57;;;;;;;;;;;;;;;;;;4900912;29;19916;-47
2023/12/05 16:48:23;;;;;;;;;;;;;;;;;;4913713;29;20310;-46
2023/12/05 16:50:49;;;;;;;;;;;;;;;;;;4912230;29;19915;-46
2023/12/05 16:53:15;;;;;;;;;;;;;;;;;;4912266;29;19920;-46
2023/12/05 16:55:41;;;;;;;;;;;;;;;;;;4908197;29;19918;-45
2023/12/05 16:58:07;;;;;;;;;;;;;;;;;;4909616;29;19927;-48
2023/12/05 17:00:33;;;;;;;;;;;;;;;;;;4911431;29;19915;-47
2023/12/05 17:02:59;;;;;;;;;;;;;;;;;;4903948;29;20644;-47
2023/12/05 17:05:25;;;;;;;;;;;;;;;;;;4903686;29;19919;-48
2023/12/05 17:07:51;;;;;;;;;;;;;;;;;;4898263;29;19911;-46
2023/12/05 17:10:17;;;;;;;;;;;;;;;;;;4896546;29;20010;-46
2023/12/05 17:12:42;;;;;;;;;;;;;;;;;;4903995;29;19919;-45
2023/12/05 17:15:08;;;;;;;;;;;;;;;;;;4911255;29;19953;-49
2023/12/05 17:17:34;;;;;;;;;;;;;;;;;;4913969;29;19945;-47
2023/12/05 17:20:00;;;;;;;;;;;;;;;;;;4913082;29;19911;-46
2023/12/05 17:22:26;;;;;;;;;;;;;;;;;;4910414;29;19923;-46
2023/12/05 17:24:52;;;;;;;;;;;;;;;;;;4911180;29;19938;-49
2023/12/05 17:27:19;;;;;;;;;;;;;;;;;;4921596;29;19946;-46
2023/12/05 17:29:45;;;;;;;;;;;;;;;;;;4931717;29;19915;-48
2023/12/05 17:32:12;;;;;;;;;;;;;;;;;;4914872;29;20021;-49
2023/12/05 17:34:38;;;;;;;;;;;;;;;;;;4911288;29;19923;-49
2023/12/05 17:37:04;;;;;;;;;;;;;;;;;;4914770;29;19982;-47
2023/12/05 17:39:30;;;;;;;;;;;;;;;;;;4911048;29;19958;-47
2023/12/05 17:41:56;;;;;;;;;;;;;;;;;;4912039;29;19950;-45
2023/12/05 17:44:21;;;;;;;;;;;;;;;;;;4909432;29;19915;-47
2023/12/05 17:46:47;;;;;;;;;;;;;;;;;;4919325;29;19922;-49
2023/12/05 17:49:13;;;;;;;;;;;;;;;;;;4910928;29;20028;-45
2023/12/05 17:51:39;;;;;;;;;;;;;;;;;;4913213;29;20374;-46
2023/12/05 17:54:05;;;;;;;;;;;;;;;;;;4908752;29;19922;-47
2023/12/05 17:56:31;;;;;;;;;;;;;;;;;;4910102;29;19927;-46
2023/12/05 17:58:57;;;;;;;;;;;;;;;;;;4927901;29;19918;-49
2023/12/05 18:01:23;;;;;;;;;;;;;;;;;;4922221;29;20059;-46
2023/12/05 18:03:49;;;;;;;;;;;;;;;;;;4924372;29;19925;-45
2023/12/05 18:06:15;;;;;;;;;;;;;;;;;;4919820;29;20029;-48
2023/12/05 18:08:41;;;;;;;;;;;;;;;;;;4914650;29;19911;-48
2023/12/05 18:11:08;;;;;;;;;;;;;;;;;;4915053;29;20302;-47
2023/12/05 18:13:36;;;;;;;;;;;;;;;;;;4912861;29;19915;-49
2023/12/05 18:16:02;;;;;;;;;;;;;;;;;;4915417;29;19911;-47
2023/12/05 18:18:28;;;;;;;;;;;;;;;;;;4913946;29;19911;-45
2023/12/05 18:20:54;;;;;;;;;;;;;;;;;;4912297;29;20017;-45
2023/12/05 18:23:21;;;;;;;;;;;;;;;;;;4907616;29;20398;-48
2023/12/05 18:25:46;;;;;;;;;;;;;;;;;;4897045;29;20006;-49
2023/12/05 18:28:13;;;;;;;;;;;;;;;;;;4900708;29;19915;-46
2023/12/05 18:30:41;;;;;;;;;;;;;;;;;;4910292;29;20405;-47
2023/12/05 18:33:07;;;;;;;;;;;;;;;;;;4912355;29;19919;-48
2023/12/05 18:35:33;;;;;;;;;;;;;;;;;;4915694;29;19916;-47
2023/12/05 18:37:59;;;;;;;;;;;;;;;;;;4912433;29;20049;-48
2023/12/05 18:40:25;;;;;;;;;;;;;;;;;;4913287;29;19916;-48
2023/12/05 18:42:50;;;;;;;;;;;;;;;;;;4913901;29;19918;-46
2023/12/05 18:45:16;;;;;;;;;;;;;;;;;;4912814;29;20432;-48
2023/12/05 18:47:42;;;;;;;;;;;;;;;;;;4897300;29;19915;-47
2023/12/05 18:50:08;;;;;;;;;;;;;;;;;;4902348;29;19953;-47
2023/12/05 18:52:34;;;;;;;;;;;;;;;;;;4911023;29;20433;-47
2023/12/05 18:55:00;;;;;;;;;;;;;;;;;;4913335;29;19918;-47
2023/12/05 18:57:26;;;;;;;;;;;;;;;;;;4911958;29;20398;-47
2023/12/05 18:59:52;;;;;;;;;;;;;;;;;;4913686;29;19920;-48
2023/12/05 19:02:18;;;;;;;;;;;;;;;;;;4910082;29;19926;-49
2023/12/05 19:04:44;;;;;;;;;;;;;;;;;;4909963;29;19915;-49
2023/12/05 19:07:12;;;;;;;;;;;;;;;;;;4909156;29;19919;-50
2023/12/05 19:09:38;;;;;;;;;;;;;;;;;;4909540;29;19922;-50
2023/12/05 19:12:05;;;;;;;;;;;;;;;;;;4889773;29;19923;-47
2023/12/05 19:14:31;;;;;;;;;;;;;;;;;;4907941;29;19965;-45
2023/12/05 19:16:57;;;;;;;;;;;;;;;;;;4909125;29;19959;-45
2023/12/05 19:19:23;;;;;;;;;;;;;;;;;;4910677;29;19921;-47
2023/12/05 19:21:49;;;;;;;;;;;;;;;;;;4909688;29;19929;-46
2023/12/05 19:24:15;;;;;;;;;;;;;;;;;;4910130;29;19919;-48
2023/12/05 19:26:41;;;;;;;;;;;;;;;;;;4907145;29;19915;-48
2023/12/05 19:29:06;;;;;;;;;;;;;;;;;;4908987;29;19923;-46
2023/12/05 19:31:32;;;;;;;;;;;;;;;;;;4908628;29;19987;-48
2023/12/05 19:33:58;;;;;;;;;;;;;;;;;;4906858;29;19954;-50
2023/12/05 19:36:24;;;;;;;;;;;;;;;;;;4914443;29;19927;-49
2023/12/05 19:38:51;;;;;;;;;;;;;;;;;;4905256;29;20009;-47
2023/12/05 19:41:18;;;;;;;;;;;;;;;;;;4907640;29;19954;-45
2023/12/05 19:43:45;;;;;;;;;;;;;;;;;;4905841;29;20356;-48
2023/12/05 19:46:11;;;;;;;;;;;;;;;;;;4907782;29;19915;-48
2023/12/05 19:48:37;;;;;;;;;;;;;;;;;;4908782;29;19923;-49
2023/12/05 19:51:03;;;;;;;;;;;;;;;;;;4911083;29;19919;-48
2023/12/05 19:53:29;;;;;;;;;;;;;;;;;;4910977;29;19919;-45
2023/12/05 19:55:55;;;;;;;;;;;;;;;;;;4909974;29;19990;-50
2023/12/05 19:58:21;;;;;;;;;;;;;;;;;;4911512;29;19926;-46
2023/12/05 20:00:47;;;;;;;;;;;;;;;;;;4908937;29;20457;-47
2023/12/05 20:03:14;;;;;;;;;;;;;;;;;;4910023;29;20002;-50
2023/12/05 20:05:40;;;;;;;;;;;;;;;;;;4909494;29;20324;-47
2023/12/05 20:08:06;;;;;;;;;;;;;;;;;;4904741;29;20015;-46
2023/12/05 20:10:32;;;;;;;;;;;;;;;;;;4909342;29;20366;-46
2023/12/05 20:12:58;;;;;;;;;;;;;;;;;;4919402;29;19966;-46
2023/12/05 20:15:24;;;;;;;;;;;;;;;;;;4913902;29;20426;-48
2023/12/05 20:17:49;;;;;;;;;;;;;;;;;;4911064;29;19966;-47
2023/12/05 20:20:16;;;;;;;;;;;;;;;;;;4915216;29;20447;-49
2023/12/05 20:22:42;;;;;;;;;;;;;;;;;;4910163;29;19954;-46
2023/12/05 20:25:08;;;;;;;;;;;;;;;;;;4906835;29;19950;-46
2023/12/05 20:27:35;;;;;;;;;;;;;;;;;;4907453;29;19915;-49
2023/12/05 20:30:00;;;;;;;;;;;;;;;;;;4908581;29;19922;-50
2023/12/05 20:32:26;;;;;;;;;;;;;;;;;;4907192;29;19919;-47
2023/12/05 20:34:52;;;;;;;;;;;;;;;;;;4908834;29;20294;-50
2023/12/05 20:37:18;;;;;;;;;;;;;;;;;;4910484;29;19926;-50
2023/12/05 20:39:44;;;;;;;;;;;;;;;;;;4909997;29;20066;-50
2023/12/05 20:42:10;;;;;;;;;;;;;;;;;;4891348;29;19915;-49
2023/12/05 20:44:36;;;;;;;;;;;;;;;;;;4907721;29;19915;-48
2023/12/05 20:47:02;;;;;;;;;;;;;;;;;;4919996;29;19937;-45
2023/12/05 20:49:28;;;;;;;;;;;;;;;;;;4906610;29;19926;-47
2023/12/05 20:51:54;;;;;;;;;;;;;;;;;;4909260;29;19915;-46
2023/12/05 20:54:20;;;;;;;;;;;;;;;;;;4910034;29;19915;-49
2023/12/05 20:56:46;;;;;;;;;;;;;;;;;;4907634;29;19962;-49
2023/12/05 20:59:12;;;;;;;;;;;;;;;;;;4910250;29;19916;-47
2023/12/05 21:01:38;;;;;;;;;;;;;;;;;;4908656;29;20397;-48
2023/12/05 21:04:04;;;;;;;;;;;;;;;;;;4908226;29;20018;-48
2023/12/05 21:06:30;;;;;;;;;;;;;;;;;;4908221;29;19912;-47
2023/12/05 21:08:55;;;;;;;;;;;;;;;;;;4907794;29;20171;-49
2023/12/05 21:11:21;;;;;;;;;;;;;;;;;;4908963;29;19921;-48
2023/12/05 21:13:47;;;;;;;;;;;;;;;;;;4909149;29;19923;-50
2023/12/05 21:16:13;;;;;;;;;;;;;;;;;;4909960;29;20390;-45
2023/12/05 21:18:39;;;;;;;;;;;;;;;;;;4905957;29;19947;-47
2023/12/05 21:21:05;;;;;;;;;;;;;;;;;;4908621;29;19922;-47
2023/12/05 21:23:33;;;;;;;;;;;;;;;;;;4906816;29;19962;-48
2023/12/05 21:25:58;;;;;;;;;;;;;;;;;;4908250;29;19915;-48
2023/12/05 21:28:24;;;;;;;;;;;;;;;;;;4909065;29;19997;-46
2023/12/05 21:30:51;;;;;;;;;;;;;;;;;;4907790;29;19915;-46
2023/12/05 21:33:20;;;;;;;;;;;;;;;;;;4891925;29;19970;-48
2023/12/05 21:35:47;;;;;;;;;;;;;;;;;;4910965;29;19982;-46
2023/12/05 21:38:13;;;;;;;;;;;;;;;;;;4910207;29;19926;-46
2023/12/05 21:40:39;;;;;;;;;;;;;;;;;;4910008;29;19915;-50
2023/12/05 21:43:04;;;;;;;;;;;;;;;;;;4912137;29;19919;-48
2023/12/05 21:45:30;;;;;;;;;;;;;;;;;;4913798;29;19911;-49
2023/12/05 21:47:56;;;;;;;;;;;;;;;;;;4908548;29;20355;-46
2023/12/05 21:50:22;;;;;;;;;;;;;;;;;;4909622;29;20010;-48
2023/12/05 21:52:48;;;;;;;;;;;;;;;;;;4917257;29;20387;-48
2023/12/05 21:55:14;;;;;;;;;;;;;;;;;;4910246;29;19919;-48
2023/12/05 21:57:40;;;;;;;;;;;;;;;;;;4913633;29;20368;-49
2023/12/05 22:00:06;;;;;;;;;;;;;;;;;;4911430;29;19923;-46
2023/12/05 22:02:32;;;;;;;;;;;;;;;;;;4912026;29;20307;-47
2023/12/05 22:04:58;;;;;;;;;;;;;;;;;;4910685;29;19915;-50
2023/12/05 22:07:23;;;;;;;;;;;;;;;;;;4909170;29;19923;-46
2023/12/05 22:09:49;;;;;;;;;;;;;;;;;;4913050;29;19959;-46
2023/12/05 22:12:15;;;;;;;;;;;;;;;;;;4912652;29;20040;-46
2023/12/05 22:14:41;;;;;;;;;;;;;;;;;;4910708;29;19946;-50
2023/12/05 22:17:07;;;;;;;;;;;;;;;;;;4910950;29;19919;-48
2023/12/05 22:19:33;;;;;;;;;;;;;;;;;;4910114;29;19978;-49
2023/12/05 22:21:59;;;;;;;;;;;;;;;;;;4910070;29;19922;-49
2023/12/05 22:24:25;;;;;;;;;;;;;;;;;;4909665;29;20010;-48
2023/12/05 22:26:51;;;;;;;;;;;;;;;;;;4910789;29;20402;-47
2023/12/05 22:29:17;;;;;;;;;;;;;;;;;;4896424;29;19923;-47
2023/12/05 22:31:43;;;;;;;;;;;;;;;;;;4911224;29;19915;-49
2023/12/05 22:34:09;;;;;;;;;;;;;;;;;;4911228;29;19922;-46
2023/12/05 22:36:34;;;;;;;;;;;;;;;;;;4911965;29;19922;-47